Time;durP1;ratioP1;P1;durP2;ratioP2;P2;SDS_P1;SDS_P2;PMS_P1;PMS_P2;Temp;Humidity;BMP_temperature;BMP_pressure;BME280_temperature;BME280_humidity;BME280_pressure;Samples;Min_cycle;Max_cycle;Signal;HPM_P1;HPM_P2
2022/12/06 00:01:20;;;;;;;;;;;19.50;64.10;;;;;;4402208;32;19967;-80
2022/12/06 00:03:49;;;;;;;;;;;19.50;64.10;;;;;;4415276;32;19979;-80
2022/12/06 00:06:17;;;;;;;;;;;19.50;64.10;;;;;;4415724;32;20394;-80
2022/12/06 00:08:43;;;;;;;;;;;19.50;64.10;;;;;;4415581;32;20156;-80
2022/12/06 00:11:20;;;;;;;;;;;19.50;64.10;;;;;;4415307;32;20003;-80
2022/12/06 00:13:47;;;;;;;;;;;19.50;64.00;;;;;;4415452;32;20397;-79
2022/12/06 00:16:14;;;;;;;;;;;19.50;63.90;;;;;;4415455;32;20050;-80
2022/12/06 00:18:40;;;;;;;;;;;19.50;63.90;;;;;;4415031;32;19975;-80
2022/12/06 00:21:11;;;;;;;;;;;19.50;63.90;;;;;;4415213;32;20022;-81
2022/12/06 00:23:38;;;;;;;;;;;19.50;63.90;;;;;;4415319;32;20072;-80
2022/12/06 00:26:04;;;;;;;;;;;19.50;63.90;;;;;;4415443;32;19987;-80
2022/12/06 00:28:30;;;;;;;;;;;19.50;63.80;;;;;;4415156;32;19994;-80
2022/12/06 00:30:56;;;;;;;;;;;19.50;63.80;;;;;;4415442;32;19971;-80
2022/12/06 00:33:22;;;;;;;;;;;19.50;63.80;;;;;;4413964;32;20091;-80
2022/12/06 00:35:54;;;;;;;;;;;19.50;63.70;;;;;;4415334;32;19978;-80
2022/12/06 00:38:19;;;;;;;;;;;19.50;63.70;;;;;;4415149;32;19979;-80
2022/12/06 00:40:45;;;;;;;;;;;19.50;63.60;;;;;;4414133;32;20306;-80
2022/12/06 00:43:11;;;;;;;;;;;19.50;63.70;;;;;;4415016;32;20098;-80
2022/12/06 00:45:36;;;;;;;;;;;19.50;63.60;;;;;;4415233;32;19978;-80
2022/12/06 00:48:02;;;;;;;;;;;19.50;63.50;;;;;;4415158;32;20007;-80
2022/12/06 00:50:28;;;;;;;;;;;19.50;63.50;;;;;;4414903;32;20538;-80
2022/12/06 00:52:54;;;;;;;;;;;19.50;63.50;;;;;;4415289;32;20543;-80
2022/12/06 00:55:19;;;;;;;;;;;19.50;63.50;;;;;;4413865;32;19986;-81
2022/12/06 00:57:46;;;;;;;;;;;19.50;63.40;;;;;;4415057;32;19975;-80
2022/12/06 01:00:12;;;;;;;;;;;19.60;63.40;;;;;;4414800;32;20181;-80
2022/12/06 01:02:37;;;;;;;;;;;19.50;63.40;;;;;;4415157;32;19991;-81
2022/12/06 01:05:03;;;;;;;;;;;19.50;63.30;;;;;;4414562;32;20416;-81
2022/12/06 01:07:29;;;;;;;;;;;19.60;63.40;;;;;;4414603;32;20344;-80
2022/12/06 01:09:55;;;;;;;;;;;19.60;63.40;;;;;;4414764;32;19968;-80
2022/12/06 01:12:21;;;;;;;;;;;19.50;63.30;;;;;;4414712;32;20031;-80
2022/12/06 01:14:47;;;;;;;;;;;19.50;63.20;;;;;;4414732;32;19997;-82
2022/12/06 01:17:13;;;;;;;;;;;19.50;63.20;;;;;;4414605;32;20015;-82
2022/12/06 01:19:38;;;;;;;;;;;19.60;63.30;;;;;;4414646;32;19987;-83
2022/12/06 01:22:04;;;;;;;;;;;19.50;63.30;;;;;;4414681;32;20389;-84
2022/12/06 01:24:30;;;;;;;;;;;19.60;63.30;;;;;;4414614;32;20051;-82
2022/12/06 01:26:55;;;;;;;;;;;19.50;63.30;;;;;;4414600;32;20385;-81
2022/12/06 01:29:21;;;;;;;;;;;19.50;63.30;;;;;;4414658;32;20308;-81
2022/12/06 01:31:47;;;;;;;;;;;19.50;63.30;;;;;;4413414;32;20051;-81
2022/12/06 01:34:13;;;;;;;;;;;19.50;63.30;;;;;;4404811;32;20026;-82
2022/12/06 01:36:39;;;;;;;;;;;19.50;63.30;;;;;;4411938;32;19979;-81
2022/12/06 01:39:05;;;;;;;;;;;19.50;63.30;;;;;;4414405;32;19982;-81
2022/12/06 01:41:31;;;;;;;;;;;19.60;63.40;;;;;;4414446;32;19982;-81
2022/12/06 01:43:57;;;;;;;;;;;19.50;63.30;;;;;;4414263;32;19968;-82
2022/12/06 01:46:27;;;;;;;;;;;19.50;63.30;;;;;;4414468;32;20011;-82
2022/12/06 01:48:59;;;;;;;;;;;19.60;63.40;;;;;;4414129;32;20023;-81
2022/12/06 01:51:25;;;;;;;;;;;19.50;63.40;;;;;;4414425;32;19975;-81
2022/12/06 01:53:52;;;;;;;;;;;19.60;63.40;;;;;;4414167;32;20045;-81
2022/12/06 01:56:18;;;;;;;;;;;19.50;63.30;;;;;;4414501;32;20010;-81
2022/12/06 01:58:45;;;;;;;;;;;19.60;63.40;;;;;;4414164;32;19983;-80
2022/12/06 02:01:11;;;;;;;;;;;19.50;63.30;;;;;;4414559;32;20023;-81
2022/12/06 02:03:36;;;;;;;;;;;19.50;63.30;;;;;;4413892;32;20734;-82
2022/12/06 02:06:04;;;;;;;;;;;19.50;63.30;;;;;;4414171;32;20566;-82
2022/12/06 02:08:30;;;;;;;;;;;19.60;63.40;;;;;;4414257;32;19993;-82
2022/12/06 02:10:57;;;;;;;;;;;19.50;63.30;;;;;;4413942;32;19990;-81
2022/12/06 02:13:23;;;;;;;;;;;19.50;63.30;;;;;;4414256;32;20007;-82
2022/12/06 02:15:56;;;;;;;;;;;19.60;63.30;;;;;;4414099;32;19979;-81
2022/12/06 02:18:32;;;;;;;;;;;19.50;63.20;;;;;;4414188;32;19971;-82
2022/12/06 02:21:04;;;;;;;;;;;19.50;63.20;;;;;;4414376;32;20433;-82
2022/12/06 02:23:48;;;;;;;;;;;19.50;63.20;;;;;;4414366;32;20027;-81
2022/12/06 02:26:16;;;;;;;;;;;19.50;63.10;;;;;;4414127;32;20030;-81
2022/12/06 02:28:41;;;;;;;;;;;19.60;63.10;;;;;;4413328;32;20168;-81
2022/12/06 02:31:22;;;;;;;;;;;19.60;63.00;;;;;;4414278;32;20579;-82
2022/12/06 02:33:49;;;;;;;;;;;19.60;63.00;;;;;;4414110;32;19998;-82
2022/12/06 02:36:26;;;;;;;;;;;19.60;63.00;;;;;;4414076;32;19986;-82
2022/12/06 02:38:58;;;;;;;;;;;19.60;62.90;;;;;;4414325;32;19997;-81
2022/12/06 02:41:30;;;;;;;;;;;19.60;62.90;;;;;;4415908;32;19983;-82
2022/12/06 02:44:02;;;;;;;;;;;19.60;62.90;;;;;;4407089;32;20037;-81
2022/12/06 02:46:30;;;;;;;;;;;19.60;62.90;;;;;;4415855;32;20482;-82
2022/12/06 02:48:58;;;;;;;;;;;19.60;62.90;;;;;;4406374;32;19991;-82
2022/12/06 02:51:24;;;;;;;;;;;19.60;62.90;;;;;;4416863;32;20579;-82
2022/12/06 02:53:51;;;;;;;;;;;19.60;62.90;;;;;;4416502;32;19987;-81
2022/12/06 02:56:18;;;;;;;;;;;19.60;62.90;;;;;;4416673;32;19993;-82
2022/12/06 02:58:43;;;;;;;;;;;19.60;62.90;;;;;;4416586;32;20027;-81
2022/12/06 03:01:20;;;;;;;;;;;19.60;62.80;;;;;;4416903;32;19995;-82
2022/12/06 03:04:04;;;;;;;;;;;19.60;62.80;;;;;;4416150;32;19999;-82
2022/12/06 03:06:48;;;;;;;;;;;19.60;62.80;;;;;;4416677;32;19971;-81
2022/12/06 03:09:23;;;;;;;;;;;19.60;62.80;;;;;;4416233;32;20022;-82
2022/12/06 03:11:49;;;;;;;;;;;19.60;62.80;;;;;;4416725;32;19983;-82
2022/12/06 03:14:22;;;;;;;;;;;19.60;62.80;;;;;;4416369;32;20397;-82
2022/12/06 03:16:53;;;;;;;;;;;19.60;62.70;;;;;;4416209;32;20010;-82
2022/12/06 03:19:20;;;;;;;;;;;19.60;62.70;;;;;;4416994;32;20310;-80
2022/12/06 03:22:06;;;;;;;;;;;19.60;62.70;;;;;;4416945;32;20053;-82
2022/12/06 03:24:32;;;;;;;;;;;19.60;62.70;;;;;;4416503;32;19990;-81
2022/12/06 03:27:00;;;;;;;;;;;19.60;62.70;;;;;;4416976;32;20077;-82
2022/12/06 03:29:27;;;;;;;;;;;19.60;62.60;;;;;;4416861;32;20393;-81
2022/12/06 03:31:53;;;;;;;;;;;19.60;62.60;;;;;;4416488;32;19993;-81
2022/12/06 03:34:26;;;;;;;;;;;19.60;62.60;;;;;;4417055;32;19994;-82
2022/12/06 03:36:51;;;;;;;;;;;19.60;62.60;;;;;;4417012;32;19986;-82
2022/12/06 03:39:26;;;;;;;;;;;19.60;62.60;;;;;;4416676;32;19986;-82
2022/12/06 03:41:54;;;;;;;;;;;19.60;62.60;;;;;;4416818;32;19979;-82
2022/12/06 03:44:20;;;;;;;;;;;19.60;62.60;;;;;;4417085;32;20054;-82
2022/12/06 03:46:51;;;;;;;;;;;19.60;62.60;;;;;;4417009;32;20491;-82
2022/12/06 03:49:20;;;;;;;;;;;19.60;62.60;;;;;;4416757;32;19983;-82
2022/12/06 03:51:46;;;;;;;;;;;19.60;62.50;;;;;;4415953;32;19983;-81
2022/12/06 03:54:12;;;;;;;;;;;19.60;62.50;;;;;;4416792;32;20097;-80
2022/12/06 03:56:38;;;;;;;;;;;19.60;62.50;;;;;;4416621;32;19999;-82
2022/12/06 03:59:04;;;;;;;;;;;19.60;62.50;;;;;;4416495;32;20354;-82
2022/12/06 04:01:30;;;;;;;;;;;19.60;62.50;;;;;;4416126;32;19979;-82
2022/12/06 04:03:55;;;;;;;;;;;19.60;62.40;;;;;;4416397;32;20033;-81
2022/12/06 04:06:21;;;;;;;;;;;19.60;62.50;;;;;;4412795;32;19971;-82
2022/12/06 04:08:47;;;;;;;;;;;19.60;62.40;;;;;;4412931;32;19981;-81
2022/12/06 04:11:12;;;;;;;;;;;19.60;62.40;;;;;;4416785;32;20157;-82
2022/12/06 04:13:39;;;;;;;;;;;19.60;62.40;;;;;;4416915;32;19964;-82
2022/12/06 04:18:09;;;;;;;;;;;19.60;62.30;;;;;;4416097;32;19990;-81
2022/12/06 04:18:52;;;;;;;;;;;19.60;62.30;;;;;;4415599;32;19979;-82
2022/12/06 04:23:56;;;;;;;;;;;19.60;62.30;;;;;;4415589;32;19982;-79
2022/12/06 04:26:22;;;;;;;;;;;19.60;62.30;;;;;;4415687;32;19979;-82
2022/12/06 04:39:45;;;;;;;;;;;19.60;62.20;;;;;;4415150;32;20073;-82
2022/12/06 04:44:56;;;;;;;;;;;19.60;62.20;;;;;;4415037;32;20063;-82
2022/12/06 04:47:22;;;;;;;;;;;19.70;62.20;;;;;;4415234;32;20403;-82
2022/12/06 04:49:47;;;;;;;;;;;19.70;62.30;;;;;;4414956;32;20066;-82
2022/12/06 04:52:13;;;;;;;;;;;19.70;62.20;;;;;;4415137;32;20015;-82
2022/12/06 04:54:39;;;;;;;;;;;19.70;62.20;;;;;;4415050;32;19994;-82
2022/12/06 04:57:09;;;;;;;;;;;19.70;62.20;;;;;;4415063;32;19974;-83
2022/12/06 04:59:36;;;;;;;;;;;19.70;62.20;;;;;;4415054;32;19979;-83
2022/12/06 05:02:02;;;;;;;;;;;19.70;62.20;;;;;;4414773;32;19971;-83
2022/12/06 05:04:27;;;;;;;;;;;19.70;62.20;;;;;;4413372;32;20444;-82
2022/12/06 05:06:53;;;;;;;;;;;19.70;62.20;;;;;;4414757;32;20816;-82
2022/12/06 05:09:19;;;;;;;;;;;19.70;62.20;;;;;;4414653;32;19971;-83
2022/12/06 05:11:45;;;;;;;;;;;19.70;62.20;;;;;;4401282;32;20053;-82
2022/12/06 05:14:10;;;;;;;;;;;19.70;62.20;;;;;;4401200;32;20106;-82
2022/12/06 05:16:36;;;;;;;;;;;19.70;62.10;;;;;;4414988;32;19971;-83
2022/12/06 05:19:02;;;;;;;;;;;19.70;62.20;;;;;;4413562;32;20424;-82
2022/12/06 05:21:28;;;;;;;;;;;19.70;62.20;;;;;;4414763;32;19968;-83
2022/12/06 05:23:54;;;;;;;;;;;19.70;62.10;;;;;;4414510;32;20647;-83
2022/12/06 05:26:21;;;;;;;;;;;19.70;62.20;;;;;;4414662;32;19985;-82
2022/12/06 05:28:47;;;;;;;;;;;19.70;62.10;;;;;;4414580;32;20062;-83
2022/12/06 05:31:13;;;;;;;;;;;19.70;62.20;;;;;;4413580;32;19986;-83
2022/12/06 05:33:39;;;;;;;;;;;19.70;63.00;;;;;;4414403;32;19983;-83
2022/12/06 05:36:09;;;;;;;;;;;19.70;62.10;;;;;;4414442;32;19990;-83
2022/12/06 05:38:34;;;;;;;;;;;19.70;62.10;;;;;;4414606;32;19982;-83
2022/12/06 05:41:01;;;;;;;;;;;19.70;62.10;;;;;;4414527;32;19983;-83
2022/12/06 05:43:28;;;;;;;;;;;19.70;62.10;;;;;;4414391;32;20003;-83
2022/12/06 05:45:54;;;;;;;;;;;19.70;62.00;;;;;;4414267;32;20388;-82
2022/12/06 05:48:19;;;;;;;;;;;19.70;62.00;;;;;;4414384;32;19982;-83
2022/12/06 05:50:46;;;;;;;;;;;19.70;62.00;;;;;;4414684;32;19981;-83
2022/12/06 05:53:12;;;;;;;;;;;19.70;62.00;;;;;;4414321;32;19985;-82
2022/12/06 05:55:38;;;;;;;;;;;19.70;62.00;;;;;;4414560;32;19972;-82
2022/12/06 05:58:04;;;;;;;;;;;19.70;62.00;;;;;;4414330;32;20014;-80
2022/12/06 06:00:29;;;;;;;;;;;19.70;61.90;;;;;;4414679;32;20097;-82
2022/12/06 06:02:55;;;;;;;;;;;19.70;62.00;;;;;;4414590;32;20066;-82
2022/12/06 06:05:21;;;;;;;;;;;19.70;61.90;;;;;;4413700;32;19991;-82
2022/12/06 06:07:46;;;;;;;;;;;19.70;61.90;;;;;;4414441;32;20377;-82
2022/12/06 06:10:12;;;;;;;;;;;19.70;61.90;;;;;;4414065;32;19967;-82
2022/12/06 06:12:38;;;;;;;;;;;19.70;61.90;;;;;;4414346;32;20113;-83
2022/12/06 06:15:06;;;;;;;;;;;19.70;61.90;;;;;;4414441;32;20007;-83
2022/12/06 06:17:32;;;;;;;;;;;19.70;61.90;;;;;;4393094;32;19998;-82
2022/12/06 06:20:01;;;;;;;;;;;19.70;61.90;;;;;;4403411;32;19997;-82
2022/12/06 06:22:27;;;;;;;;;;;19.70;62.00;;;;;;4416994;32;20002;-81
2022/12/06 06:24:52;;;;;;;;;;;19.70;62.10;;;;;;4417052;32;19971;-82
2022/12/06 06:27:18;;;;;;;;;;;19.70;62.20;;;;;;4416994;32;20049;-82
2022/12/06 06:29:44;;;;;;;;;;;19.70;62.30;;;;;;4417071;32;20327;-80
2022/12/06 06:32:09;;;;;;;;;;;19.70;62.30;;;;;;4417030;32;20053;-80
2022/12/06 06:34:35;;;;;;;;;;;19.70;62.40;;;;;;4416960;32;19971;-81
2022/12/06 06:37:01;;;;;;;;;;;19.70;62.50;;;;;;4417119;32;19967;-80
2022/12/06 06:39:26;;;;;;;;;;;19.70;62.60;;;;;;4416778;32;20163;-80
2022/12/06 06:41:52;;;;;;;;;;;19.70;62.60;;;;;;4416926;32;19972;-82
2022/12/06 06:44:18;;;;;;;;;;;19.70;62.80;;;;;;4416883;32;20118;-81
2022/12/06 06:46:43;;;;;;;;;;;19.70;62.90;;;;;;4416222;32;20022;-84
2022/12/06 06:49:11;;;;;;;;;;;19.70;63.00;;;;;;4416651;32;19983;-82
2022/12/06 06:51:37;;;;;;;;;;;19.60;63.20;;;;;;4416610;32;20053;-82
2022/12/06 06:54:02;;;;;;;;;;;19.60;63.50;;;;;;4416585;32;19980;-82
2022/12/06 06:56:28;;;;;;;;;;;19.60;63.80;;;;;;4416628;32;19974;-83
2022/12/06 06:58:54;;;;;;;;;;;19.50;64.00;;;;;;4416558;32;20452;-83
2022/12/06 07:01:21;;;;;;;;;;;19.50;64.20;;;;;;4416765;32;19967;-83
2022/12/06 07:03:47;;;;;;;;;;;19.40;64.20;;;;;;4407942;32;20086;-83
2022/12/06 07:06:13;;;;;;;;;;;19.40;64.50;;;;;;4405839;32;19979;-81
2022/12/06 07:08:40;;;;;;;;;;;19.30;64.50;;;;;;4416536;32;20345;-85
2022/12/06 07:11:06;;;;;;;;;;;19.30;64.70;;;;;;4416024;32;19971;-82
2022/12/06 07:13:32;;;;;;;;;;;19.20;65.00;;;;;;4416592;32;20030;-84
2022/12/06 07:15:58;;;;;;;;;;;19.20;64.80;;;;;;4416524;32;20074;-82
2022/12/06 07:18:24;;;;;;;;;;;19.20;64.80;;;;;;4416529;32;20101;-84
2022/12/06 07:20:57;;;;;;;;;;;19.20;64.90;;;;;;4416225;32;19983;-83
2022/12/06 07:23:23;;;;;;;;;;;19.20;64.80;;;;;;4416529;32;19990;-83
2022/12/06 07:25:58;;;;;;;;;;;19.10;64.90;;;;;;4416061;32;19967;-85
2022/12/06 07:28:23;;;;;;;;;;;19.10;64.90;;;;;;4415155;32;19986;-83
2022/12/06 07:30:49;;;;;;;;;;;19.10;65.80;;;;;;4416000;32;19975;-85
2022/12/06 07:33:14;;;;;;;;;;;19.10;65.10;;;;;;4416008;32;19971;-80
2022/12/06 07:35:40;;;;;;;;;;;19.10;65.10;;;;;;4415755;32;19967;-79
2022/12/06 07:38:06;;;;;;;;;;;19.10;65.00;;;;;;4415989;32;20302;-78
2022/12/06 07:40:31;;;;;;;;;;;19.10;65.00;;;;;;4415851;32;20295;-83
2022/12/06 07:45:41;;;;;;;;;;;19.10;65.00;;;;;;4416077;32;19975;-76
2022/12/06 07:48:07;;;;;;;;;;;19.10;65.00;;;;;;4415894;32;20054;-74
2022/12/06 07:50:33;;;;;;;;;;;19.10;65.10;;;;;;4415953;32;19963;-82
2022/12/06 07:52:58;;;;;;;;;;;19.10;65.10;;;;;;4414876;32;20090;-81
2022/12/06 07:55:24;;;;;;;;;;;19.10;65.20;;;;;;4402236;32;20355;-80
2022/12/06 07:57:50;;;;;;;;;;;19.00;65.20;;;;;;4415908;32;19988;-82
2022/12/06 08:00:16;;;;;;;;;;;19.00;65.20;;;;;;4415682;32;20105;-78
2022/12/06 08:02:41;;;;;;;;;;;19.00;65.30;;;;;;4415879;32;19982;-80
2022/12/06 08:05:07;;;;;;;;;;;19.00;65.40;;;;;;4415159;32;20049;-82
2022/12/06 08:07:33;;;;;;;;;;;18.90;65.50;;;;;;4415863;32;20313;-78
2022/12/06 08:09:59;;;;;;;;;;;18.90;65.70;;;;;;4415302;32;20042;-77
2022/12/06 08:12:24;;;;;;;;;;;18.90;65.90;;;;;;4415577;32;19998;-78
2022/12/06 08:14:50;;;;;;;;;;;18.90;66.00;;;;;;4415602;32;20113;-81
2022/12/06 08:17:16;;;;;;;;;;;18.90;66.20;;;;;;4415330;32;20490;-79
2022/12/06 08:19:41;;;;;;;;;;;18.90;66.00;;;;;;4415640;32;20113;-78
2022/12/06 08:22:08;;;;;;;;;;;18.90;66.20;;;;;;4415340;32;19983;-78
2022/12/06 08:24:34;;;;;;;;;;;18.90;66.10;;;;;;4415133;32;20010;-76
2022/12/06 08:26:59;;;;;;;;;;;18.90;66.10;;;;;;4401618;32;19983;-77
2022/12/06 08:29:25;;;;;;;;;;;18.90;65.60;;;;;;4415529;32;19967;-78
2022/12/06 08:31:51;;;;;;;;;;;18.90;65.50;;;;;;4415282;32;19983;-77
2022/12/06 08:34:17;;;;;;;;;;;18.90;65.10;;;;;;4414802;32;20293;-78
2022/12/06 08:36:43;;;;;;;;;;;18.90;64.90;;;;;;4415539;32;20051;-78
2022/12/06 08:39:09;;;;;;;;;;;18.90;64.80;;;;;;4414629;32;20387;-77
2022/12/06 08:44:20;;;;;;;;;;;18.90;65.00;;;;;;4414947;32;20053;-70
2022/12/06 08:46:46;;;;;;;;;;;18.90;64.60;;;;;;4416761;32;20101;-75
2022/12/06 08:49:13;;;;;;;;;;;19.00;64.60;;;;;;4427246;32;20038;-75
2022/12/06 08:51:42;;;;;;;;;;;19.20;64.00;;;;;;4428639;32;19979;-72
2022/12/06 08:54:08;;;;;;;;;;;19.30;63.80;;;;;;4418409;32;20313;-74
2022/12/06 08:56:35;;;;;;;;;;;19.50;63.30;;;;;;4414549;32;20448;-72
2022/12/06 08:59:01;;;;;;;;;;;19.50;63.50;;;;;;4414690;32;20001;-75
2022/12/06 09:01:28;;;;;;;;;;;19.50;63.60;;;;;;4414760;32;19979;-74
2022/12/06 09:03:54;;;;;;;;;;;19.40;63.70;;;;;;4414708;32;20022;-74
2022/12/06 09:06:20;;;;;;;;;;;19.40;63.90;;;;;;4414722;32;19964;-74
2022/12/06 09:08:46;;;;;;;;;;;19.30;64.20;;;;;;4414678;32;19971;-75
2022/12/06 09:11:12;;;;;;;;;;;19.20;64.20;;;;;;4413016;32;19982;-75
2022/12/06 09:13:38;;;;;;;;;;;19.20;64.20;;;;;;4414471;32;19987;-75
2022/12/06 09:16:10;;;;;;;;;;;19.20;64.50;;;;;;4414794;32;20172;-74
2022/12/06 09:18:36;;;;;;;;;;;19.20;64.60;;;;;;4413504;32;19979;-76
2022/12/06 09:21:05;;;;;;;;;;;19.10;64.60;;;;;;4414497;32;19982;-75
2022/12/06 09:23:32;;;;;;;;;;;19.10;64.50;;;;;;4414679;32;19987;-75
2022/12/06 09:25:58;;;;;;;;;;;19.10;64.50;;;;;;4414163;32;19994;-75
2022/12/06 09:28:23;;;;;;;;;;;19.00;64.60;;;;;;4414617;32;20010;-74
2022/12/06 09:30:49;;;;;;;;;;;19.00;64.70;;;;;;4413277;32;19975;-74
2022/12/06 09:33:15;;;;;;;;;;;19.00;64.90;;;;;;4414572;32;20329;-74
2022/12/06 09:35:40;;;;;;;;;;;19.00;65.30;;;;;;4401840;32;19971;-77
2022/12/06 09:38:06;;;;;;;;;;;19.00;65.20;;;;;;4401908;32;29604;-75
2022/12/06 09:40:34;;;;;;;;;;;18.90;65.30;;;;;;4428787;32;19992;-74
2022/12/06 09:43:14;;;;;;;;;;;18.90;65.30;;;;;;4428988;32;20111;-74
2022/12/06 09:45:40;;;;;;;;;;;18.90;65.40;;;;;;4415704;32;20026;-74
2022/12/06 09:48:11;;;;;;;;;;;18.90;65.50;;;;;;4429286;32;19971;-80
2022/12/06 09:50:40;;;;;;;;;;;18.90;65.60;;;;;;4430232;32;19967;-75
2022/12/06 09:53:18;;;;;;;;;;;18.80;65.60;;;;;;4432356;32;20112;-70
2022/12/06 09:55:53;;;;;;;;;;;18.80;65.80;;;;;;4432248;32;20108;-76
2022/12/06 09:58:25;;;;;;;;;;;18.70;65.80;;;;;;4432091;32;20118;-76
2022/12/06 10:01:14;;;;;;;;;;;18.70;65.80;;;;;;4432675;32;20066;-76
2022/12/06 10:03:50;;;;;;;;;;;18.70;65.80;;;;;;4431671;32;20444;-76
2022/12/06 10:06:17;;;;;;;;;;;18.70;65.90;;;;;;4432523;32;19987;-76
2022/12/06 10:08:43;;;;;;;;;;;18.60;66.10;;;;;;4432078;32;19994;-75
2022/12/06 10:11:23;;;;;;;;;;;18.70;66.10;;;;;;4432201;32;20290;-75
2022/12/06 10:13:58;;;;;;;;;;;18.70;65.80;;;;;;4432203;32;19967;-75
2022/12/06 10:16:27;;;;;;;;;;;18.80;65.50;;;;;;4432344;32;20061;-75
2022/12/06 10:18:53;;;;;;;;;;;18.80;65.40;;;;;;4431820;32;20101;-76
2022/12/06 10:21:26;;;;;;;;;;;18.90;65.40;;;;;;4432250;32;20380;-75
2022/12/06 10:24:05;;;;;;;;;;;19.10;65.20;;;;;;4431813;32;20320;-75
2022/12/06 10:26:47;;;;;;;;;;;19.20;65.00;;;;;;4432108;32;20109;-75
2022/12/06 10:29:27;;;;;;;;;;;19.30;64.70;;;;;;4431627;32;20133;-72
2022/12/06 10:31:56;;;;;;;;;;;19.50;64.40;;;;;;4432258;32;20026;-75
2022/12/06 10:34:25;;;;;;;;;;;19.60;64.20;;;;;;4431525;32;19978;-76
2022/12/06 10:37:01;;;;;;;;;;;19.70;64.10;;;;;;4432007;32;20388;-77
2022/12/06 10:39:45;;;;;;;;;;;19.70;63.90;;;;;;4410791;32;20523;-80
2022/12/06 10:42:14;;;;;;;;;;;19.80;63.80;;;;;;4432093;32;20475;-77
2022/12/06 10:44:44;;;;;;;;;;;19.80;63.60;;;;;;4431516;32;19975;-78
2022/12/06 10:47:13;;;;;;;;;;;19.90;63.60;;;;;;4417817;32;19999;-77
2022/12/06 10:49:50;;;;;;;;;;;19.90;63.60;;;;;;4431354;32;20325;-79
2022/12/06 10:52:16;;;;;;;;;;;20.00;63.50;;;;;;4430864;32;19974;-79
2022/12/06 10:54:44;;;;;;;;;;;20.00;63.40;;;;;;4431620;32;19983;-80
2022/12/06 10:57:15;;;;;;;;;;;20.10;63.40;;;;;;4431258;32;19994;-80
2022/12/06 10:59:57;;;;;;;;;;;20.10;63.20;;;;;;4417737;32;20130;-75
2022/12/06 11:02:47;;;;;;;;;;;20.10;63.20;;;;;;4431425;32;19982;-76
2022/12/06 11:05:17;;;;;;;;;;;20.10;63.20;;;;;;4430837;32;19994;-76
2022/12/06 11:07:45;;;;;;;;;;;20.10;63.20;;;;;;4431608;32;19982;-77
2022/12/06 11:10:16;;;;;;;;;;;20.10;63.20;;;;;;4418548;32;19986;-76
2022/12/06 11:12:42;;;;;;;;;;;20.10;63.10;;;;;;4422744;32;19971;-77
2022/12/06 11:15:15;;;;;;;;;;;20.10;62.90;;;;;;4417516;32;20053;-81
2022/12/06 11:17:42;;;;;;;;;;;20.20;62.90;;;;;;4430164;32;20018;-76
2022/12/06 11:20:28;;;;;;;;;;;20.20;62.80;;;;;;4431135;32;20018;-76
2022/12/06 11:23:06;;;;;;;;;;;20.20;62.70;;;;;;4431091;32;20260;-75
2022/12/06 11:25:40;;;;;;;;;;;20.20;62.60;;;;;;4430066;32;20013;-75
2022/12/06 11:28:21;;;;;;;;;;;20.20;62.50;;;;;;4428856;32;20060;-76
2022/12/06 11:30:51;;;;;;;;;;;20.30;62.40;;;;;;4430740;32;19975;-74
2022/12/06 11:33:19;;;;;;;;;;;20.30;62.40;;;;;;4433119;32;20116;-75
2022/12/06 11:35:46;;;;;;;;;;;20.30;62.40;;;;;;4430909;32;20590;-75
2022/12/06 11:38:13;;;;;;;;;;;20.30;62.30;;;;;;4431076;32;20421;-75
2022/12/06 11:40:44;;;;;;;;;;;20.40;62.30;;;;;;4431147;32;20053;-74
2022/12/06 11:43:14;;;;;;;;;;;20.40;62.40;;;;;;4431032;32;20393;-74
2022/12/06 11:45:41;;;;;;;;;;;20.40;62.40;;;;;;4431240;32;20037;-74
2022/12/06 11:48:17;;;;;;;;;;;20.40;62.40;;;;;;4415700;32;20140;-75
2022/12/06 11:50:44;;;;;;;;;;;20.40;62.50;;;;;;4429120;32;19975;-74
2022/12/06 11:53:18;;;;;;;;;;;20.40;62.50;;;;;;4431071;32;20136;-74
2022/12/06 11:55:47;;;;;;;;;;;20.30;62.40;;;;;;4429350;32;19975;-75
2022/12/06 11:58:21;;;;;;;;;;;20.40;62.60;;;;;;4430785;32;19982;-76
2022/12/06 12:01:02;;;;;;;;;;;20.30;62.60;;;;;;4429705;32;20487;-75
2022/12/06 12:03:29;;;;;;;;;;;20.30;62.60;;;;;;4432086;32;19993;-76
2022/12/06 12:06:13;;;;;;;;;;;20.30;62.60;;;;;;4430876;32;20018;-75
2022/12/06 12:08:39;;;;;;;;;;;20.40;62.70;;;;;;4430050;32;20470;-76
2022/12/06 12:11:05;;;;;;;;;;;20.40;62.70;;;;;;4417978;32;20092;-76
2022/12/06 12:13:43;;;;;;;;;;;20.40;62.70;;;;;;4415065;32;19979;-75
2022/12/06 12:16:11;;;;;;;;;;;20.40;62.70;;;;;;4414990;32;19989;-75
2022/12/06 12:18:40;;;;;;;;;;;20.40;63.60;;;;;;4414689;32;19983;-75
2022/12/06 12:21:06;;;;;;;;;;;20.40;62.80;;;;;;4417593;32;20041;-77
2022/12/06 12:23:33;;;;;;;;;;;20.40;62.80;;;;;;4414977;32;20401;-76
2022/12/06 12:26:01;;;;;;;;;;;20.40;62.90;;;;;;4416352;32;19994;-76
2022/12/06 12:28:28;;;;;;;;;;;20.40;62.90;;;;;;4414799;32;20054;-78
2022/12/06 12:30:55;;;;;;;;;;;20.40;62.90;;;;;;4415669;32;20093;-77
2022/12/06 12:33:22;;;;;;;;;;;20.40;62.90;;;;;;4415753;32;19987;-77
2022/12/06 12:35:51;;;;;;;;;;;20.40;63.00;;;;;;4415503;32;20145;-77
2022/12/06 12:38:37;;;;;;;;;;;20.40;63.00;;;;;;4415233;32;20089;-77
2022/12/06 12:41:23;;;;;;;;;;;20.40;63.00;;;;;;4414417;32;20537;-77
2022/12/06 12:43:59;;;;;;;;;;;20.40;63.00;;;;;;4408390;32;20393;-77
2022/12/06 12:46:27;;;;;;;;;;;20.40;63.10;;;;;;4414501;32;20133;-78
2022/12/06 12:48:53;;;;;;;;;;;20.40;63.20;;;;;;4419115;32;19983;-76
2022/12/06 12:51:19;;;;;;;;;;;20.40;63.10;;;;;;4416253;32;20006;-77
2022/12/06 12:53:45;;;;;;;;;;;20.40;63.10;;;;;;4418345;32;20418;-74
2022/12/06 12:56:13;;;;;;;;;;;20.40;63.20;;;;;;4415170;32;20018;-74
2022/12/06 12:58:39;;;;;;;;;;;20.40;63.20;;;;;;4415288;32;20029;-75
2022/12/06 13:01:22;;;;;;;;;;;20.40;63.20;;;;;;4416691;32;20011;-75
2022/12/06 13:03:50;;;;;;;;;;;20.40;63.30;;;;;;4418152;32;19990;-75
2022/12/06 13:06:28;;;;;;;;;;;20.40;63.20;;;;;;4416127;32;20517;-75
2022/12/06 13:08:57;;;;;;;;;;;20.40;63.30;;;;;;4422457;32;19971;-74
2022/12/06 13:11:23;;;;;;;;;;;20.40;63.30;;;;;;4429429;32;19990;-75
2022/12/06 13:13:49;;;;;;;;;;;20.40;63.30;;;;;;4429756;32;19975;-75
2022/12/06 13:16:19;;;;;;;;;;;20.40;63.30;;;;;;4429812;32;20022;-74
2022/12/06 13:18:55;;;;;;;;;;;20.40;63.30;;;;;;4428598;32;20085;-74
2022/12/06 13:21:24;;;;;;;;;;;20.40;63.30;;;;;;4429916;32;20393;-76
2022/12/06 13:23:55;;;;;;;;;;;20.40;63.40;;;;;;4426722;32;20561;-72
2022/12/06 13:26:27;;;;;;;;;;;20.40;63.40;;;;;;4429156;32;19993;-75
2022/12/06 13:28:55;;;;;;;;;;;20.40;63.50;;;;;;4428832;32;19986;-76
2022/12/06 13:31:23;;;;;;;;;;;20.40;63.50;;;;;;4429686;32;20040;-75
2022/12/06 13:33:57;;;;;;;;;;;20.40;63.60;;;;;;4429801;32;19974;-74
2022/12/06 13:36:24;;;;;;;;;;;20.40;63.60;;;;;;4420113;32;20045;-75
2022/12/06 13:38:50;;;;;;;;;;;20.40;63.70;;;;;;4421921;32;19971;-77
2022/12/06 13:44:52;;;;;;;;;;;20.40;63.80;;;;;;4415217;32;21094;-78
2022/12/06 13:47:41;;;;;;;;;;;20.40;63.80;;;;;;4389346;32;20058;-76
2022/12/06 13:50:28;;;;;;;;;;;20.50;63.80;;;;;;4411861;32;19990;-76
2022/12/06 13:52:53;;;;;;;;;;;20.40;63.90;;;;;;4424542;32;20408;-77
2022/12/06 13:55:25;;;;;;;;;;;20.50;63.80;;;;;;4423717;32;20073;-77
2022/12/06 13:58:10;;;;;;;;;;;20.40;63.40;;;;;;4419028;32;19971;-78
2022/12/06 14:00:39;;;;;;;;;;;20.40;63.30;;;;;;4414246;32;19991;-76
2022/12/06 14:03:20;;;;;;;;;;;20.40;63.00;;;;;;4416036;32;20145;-75
2022/12/06 14:05:55;;;;;;;;;;;20.40;63.00;;;;;;4415347;32;20097;-77
2022/12/06 14:08:24;;;;;;;;;;;20.40;63.80;;;;;;4415249;32;19995;-77
2022/12/06 14:10:49;;;;;;;;;;;20.40;62.90;;;;;;4414750;32;19979;-76
2022/12/06 14:13:16;;;;;;;;;;;20.40;62.90;;;;;;4414731;32;20003;-76
2022/12/06 14:15:46;;;;;;;;;;;20.40;62.90;;;;;;4415927;32;20097;-77
2022/12/06 14:18:20;;;;;;;;;;;20.40;62.90;;;;;;4414295;32;20105;-75
2022/12/06 14:20:46;;;;;;;;;;;20.40;62.90;;;;;;4413271;32;20466;-76
2022/12/06 14:23:27;;;;;;;;;;;20.50;63.00;;;;;;4416170;32;19971;-76
2022/12/06 14:26:11;;;;;;;;;;;20.50;62.90;;;;;;4399709;32;19997;-75
2022/12/06 14:28:37;;;;;;;;;;;20.50;62.90;;;;;;4415092;32;20511;-77
2022/12/06 14:31:04;;;;;;;;;;;20.50;62.90;;;;;;4416631;32;19987;-76
2022/12/06 14:33:30;;;;;;;;;;;20.50;62.90;;;;;;4414814;32;20400;-73
2022/12/06 14:35:57;;;;;;;;;;;20.50;62.90;;;;;;4414781;32;20200;-74
2022/12/06 14:38:23;;;;;;;;;;;20.50;62.90;;;;;;4418399;32;20061;-74
2022/12/06 14:43:34;;;;;;;;;;;20.50;63.00;;;;;;4418352;32;20030;-74
2022/12/06 14:46:01;;;;;;;;;;;20.50;63.00;;;;;;4416993;32;19967;-76
2022/12/06 14:50:22;;;;;;;;;;;20.50;63.00;;;;;;4417189;32;19967;-75
2022/12/06 14:51:19;;;;;;;;;;;20.50;63.00;;;;;;4418664;32;19990;-78
2022/12/06 14:53:45;;;;;;;;;;;20.50;63.00;;;;;;4415545;32;20058;-75